Terminal Aerodrome Forecast
Issued by NWS Cleveland, OH

Home | Current Version | Previous Version | Graphics & Text | Print | Product List | Glossary On
Versions: 1 2 3 4 5 6 7 8 9 10 11 12 13 14 15 16 17 18
000
FTUS41 KCLE 281700
TAFTOL
TAF
KTOL 281720Z 2818/2918 15006KT P6SM BKN250
     FM290200 15004KT P6SM OVC120
     FM290900 15008KT P6SM OVC060
     FM291100 17012G16KT 6SM BR SCT012 OVC050
      TEMPO 2911/2913 5SM -FZRA BR OVC012
     FM291300 19012G18KT 4SM -FZRA BR OVC012
      TEMPO 2914/2918 2SM -FZRAPL BR OVC008=

USA.gov is the U.S. government's official web portal to all federal, state and local government web resources and services.